createdAt,value
2019-05-10T00:00:35.933Z,6.25
2019-05-10T00:03:25.774Z,6.23
2019-05-10T00:06:16.229Z,6.21
2019-05-10T00:08:47.327Z,6.16
2019-05-10T00:11:33.778Z,6.09
2019-05-10T00:14:24.153Z,6.07
2019-05-10T00:16:57.828Z,6.08
2019-05-10T00:19:29.647Z,6.06
2019-05-10T00:22:01.197Z,6.02
2019-05-10T00:24:33.020Z,5.96
2019-05-10T00:27:05.031Z,5.96
2019-05-10T00:29:36.828Z,5.88
2019-05-10T00:32:08.626Z,5.84
2019-05-10T00:34:40.356Z,5.85
2019-05-10T00:37:12.084Z,5.81
2019-05-10T00:39:44.584Z,5.82
2019-05-10T00:42:16.220Z,5.84
2019-05-10T00:44:47.951Z,5.82
2019-05-10T00:47:19.673Z,5.76
2019-05-10T00:49:51.505Z,5.68
2019-05-10T00:52:23.242Z,5.69
2019-05-10T00:54:54.965Z,5.67
2019-05-10T00:57:26.796Z,5.71
2019-05-10T00:59:58.528Z,5.71
2019-05-10T01:02:30.270Z,5.48
2019-05-10T01:05:01.997Z,5.45
2019-05-10T01:07:33.849Z,5.40
2019-05-10T01:10:07.795Z,5.40
2019-05-10T01:12:39.345Z,5.45
2019-05-10T01:15:12.117Z,5.47
2019-05-10T01:17:43.953Z,5.45
2019-05-10T01:20:15.759Z,5.43
2019-05-10T01:22:47.383Z,5.36
2019-05-10T01:25:33.924Z,5.32
2019-05-10T01:27:53.046Z,5.37
2019-05-10T01:30:24.876Z,5.41
2019-05-10T01:32:56.775Z,5.41
2019-05-10T01:35:28.701Z,5.40
2019-05-10T01:38:02.277Z,5.40
2019-05-10T01:40:34.008Z,5.40
2019-05-10T01:43:06.136Z,5.38
2019-05-10T01:45:37.859Z,5.36
2019-05-10T01:48:10.987Z,5.38
2019-05-10T01:50:43.753Z,5.36
2019-05-10T01:53:15.587Z,5.39
2019-05-10T01:55:52.315Z,5.35
2019-05-10T01:58:20.920Z,5.32
2019-05-10T02:00:52.751Z,5.27
2019-05-10T02:03:24.483Z,5.21
2019-05-10T02:05:56.215Z,5.13
2019-05-10T02:08:27.950Z,5.08
2019-05-10T02:11:00.359Z,5.04
2019-05-10T02:13:32.086Z,5.02
2019-05-10T02:16:03.916Z,5.06
2019-05-10T02:18:35.641Z,5.06
2019-05-10T02:21:07.396Z,5.09
2019-05-10T02:23:39.125Z,5.11
2019-05-10T02:26:10.925Z,5.05
2019-05-10T02:28:42.659Z,4.94
2019-05-10T02:31:14.398Z,4.90
2019-05-10T02:33:46.125Z,4.91
2019-05-10T02:36:17.962Z,4.94
2019-05-10T02:38:49.685Z,4.93
2019-05-10T02:41:21.414Z,4.99
2019-05-10T02:43:53.249Z,5.04
2019-05-10T02:46:25.063Z,5.11
2019-05-10T02:48:56.685Z,5.16
2019-05-10T02:51:28.786Z,5.22
2019-05-10T02:54:01.149Z,5.26
2019-05-10T02:56:33.818Z,5.24
2019-05-10T02:59:06.780Z,5.13
2019-05-10T03:01:44.594Z,5.14
2019-05-10T03:04:16.586Z,5.18
2019-05-10T03:06:51.257Z,5.21
2019-05-10T03:09:27.768Z,5.24
2019-05-10T03:12:08.180Z,5.27
2019-05-10T03:14:42.727Z,5.30
2019-05-10T03:17:16.205Z,5.32
2019-05-10T03:19:53.626Z,5.34
2019-05-10T03:22:26.494Z,5.38
2019-05-10T03:24:58.237Z,5.36
2019-05-10T03:27:29.957Z,5.38
2019-05-10T03:30:01.780Z,5.39
2019-05-10T03:32:33.502Z,5.29
2019-05-10T03:35:07.637Z,5.25
2019-05-10T03:37:39.734Z,5.35
2019-05-10T03:40:11.841Z,5.40
2019-05-10T03:42:43.562Z,5.48
2019-05-10T03:45:15.522Z,5.48
2019-05-10T03:47:48.662Z,5.56
2019-05-10T03:50:20.390Z,5.65
2019-05-10T03:52:52.785Z,5.74
2019-05-10T03:55:24.524Z,5.78
2019-05-10T03:57:56.260Z,5.78
2019-05-10T04:00:28.468Z,5.86
2019-05-10T04:03:00.104Z,5.95
2019-05-10T04:05:31.835Z,6.05
2019-05-10T04:08:04.451Z,6.03
2019-05-10T04:10:35.973Z,6.22
2019-05-10T04:13:07.798Z,6.26
2019-05-10T04:15:39.589Z,6.43
2019-05-10T04:18:11.337Z,6.45
2019-05-10T04:20:43.069Z,6.57
2019-05-10T04:23:15.276Z,6.64
2019-05-10T04:25:46.903Z,6.61
2019-05-10T04:28:18.642Z,6.76
2019-05-10T04:30:50.370Z,6.91
2019-05-10T04:33:22.095Z,7.11
2019-05-10T04:35:53.630Z,7.08
2019-05-10T04:38:25.366Z,7.09
2019-05-10T04:40:59.181Z,7.23
2019-05-10T04:43:32.699Z,7.28
2019-05-10T04:46:04.959Z,7.44
2019-05-10T04:48:36.716Z,7.57
2019-05-10T04:51:08.456Z,7.58
2019-05-10T04:53:40.193Z,7.73
2019-05-10T04:56:12.016Z,7.85
2019-05-10T04:58:43.733Z,7.76
2019-05-10T05:01:16.985Z,7.86
2019-05-10T05:03:48.822Z,7.97
2019-05-10T05:06:20.555Z,8.25
2019-05-10T05:08:53.134Z,8.30
2019-05-10T05:11:24.655Z,8.27
2019-05-10T05:13:56.412Z,8.31
2019-05-10T05:16:28.137Z,8.19
2019-05-10T05:18:59.997Z,8.34
2019-05-10T05:21:31.727Z,8.48
2019-05-10T05:24:03.475Z,8.51
2019-05-10T05:26:35.198Z,8.69
2019-05-10T05:29:06.942Z,8.78
2019-05-10T05:31:38.777Z,8.90
2019-05-10T05:34:10.503Z,8.79
2019-05-10T05:36:42.375Z,8.90
2019-05-10T05:39:14.014Z,9.05
2019-05-10T05:41:51.648Z,9.13
2019-05-10T05:44:20.312Z,9.35
2019-05-10T05:46:52.405Z,9.17
2019-05-10T05:49:25.000Z,9.44
2019-05-10T05:51:56.831Z,9.63
2019-05-10T05:54:28.557Z,9.77
2019-05-10T05:57:00.297Z,9.76
2019-05-10T05:59:32.039Z,9.94
2019-05-10T06:02:07.478Z,9.81
2019-05-10T06:04:40.791Z,9.97
2019-05-10T06:07:10.688Z,10.31
2019-05-10T06:09:42.552Z,10.00
2019-05-10T06:12:14.965Z,10.00
2019-05-10T06:14:49.730Z,10.28
2019-05-10T06:17:23.769Z,10.59
2019-05-10T06:19:53.534Z,10.30
2019-05-10T06:22:26.239Z,10.63
2019-05-10T06:24:58.002Z,10.64
2019-05-10T06:27:35.250Z,10.95
2019-05-10T06:30:06.294Z,11.18
2019-05-10T06:32:38.124Z,11.19
2019-05-10T06:35:14.088Z,11.40
2019-05-10T06:37:44.415Z,11.47
2019-05-10T06:40:16.542Z,11.40
2019-05-10T06:42:48.275Z,11.50
2019-05-10T06:45:20.015Z,11.64
2019-05-10T06:47:53.414Z,11.56
2019-05-10T06:50:30.143Z,11.41
2019-05-10T06:53:00.675Z,11.57
2019-05-10T06:55:32.613Z,11.98
2019-05-10T06:58:04.358Z,12.37
2019-05-10T07:00:38.050Z,12.79
2019-05-10T07:03:09.444Z,13.02
2019-05-10T07:05:41.182Z,13.10
2019-05-10T07:08:17.535Z,13.31
2019-05-10T07:10:46.459Z,13.56
2019-05-10T07:13:18.299Z,13.88
2019-05-10T07:15:50.041Z,14.02
2019-05-10T07:18:24.283Z,13.81
2019-05-10T07:21:00.911Z,14.04
2019-05-10T07:23:30.314Z,14.37
2019-05-10T07:26:02.276Z,14.37
2019-05-10T07:28:34.083Z,14.59
2019-05-10T07:31:05.832Z,15.20
2019-05-10T07:33:40.180Z,15.25
2019-05-10T07:36:20.249Z,15.70
2019-05-10T07:38:53.768Z,15.88
2019-05-10T07:41:29.164Z,16.05
2019-05-10T07:44:08.198Z,16.48
2019-05-10T07:46:39.874Z,16.56
2019-05-10T07:49:23.665Z,16.35
2019-05-10T07:51:45.274Z,16.65
2019-05-10T07:54:17.181Z,16.80
2019-05-10T07:56:49.990Z,17.51
2019-05-10T07:59:27.985Z,18.38
2019-05-10T08:01:55.802Z,18.58
2019-05-10T08:04:31.839Z,18.86
2019-05-10T08:07:02.247Z,20.04
2019-05-10T08:09:41.796Z,20.23
2019-05-10T08:12:12.912Z,20.97
2019-05-10T08:14:44.466Z,20.86
2019-05-10T08:17:19.218Z,20.98
2019-05-10T08:19:51.837Z,20.81
2019-05-10T08:22:24.239Z,21.09
2019-05-10T08:24:56.536Z,20.85
2019-05-10T08:27:28.124Z,20.12
2019-05-10T08:32:34.976Z,21.06
2019-05-10T08:35:16.293Z,21.03
2019-05-10T08:37:43.330Z,20.57
2019-05-10T08:40:19.746Z,20.02
2019-05-10T08:42:54.423Z,20.29
2019-05-10T08:45:22.689Z,20.19
2019-05-10T08:48:00.883Z,20.46
2019-05-10T08:50:43.880Z,19.98
2019-05-10T08:53:04.360Z,19.80
2019-05-10T08:55:34.320Z,20.09
2019-05-10T08:58:06.132Z,20.30
2019-05-10T09:00:49.613Z,20.41
2019-05-10T09:03:18.041Z,20.66
2019-05-10T09:05:47.202Z,20.60
2019-05-10T09:08:20.234Z,21.12
2019-05-10T09:10:52.974Z,21.18
2019-05-10T09:13:28.699Z,21.34
2019-05-10T09:15:58.571Z,21.48
2019-05-10T09:18:30.331Z,21.39
2019-05-10T09:21:08.587Z,21.08
2019-05-10T09:23:35.423Z,20.75
2019-05-10T09:26:10.557Z,20.72
2019-05-10T09:28:42.118Z,20.20
2019-05-10T09:31:22.015Z,20.05
2019-05-10T09:33:49.747Z,20.16
2019-05-10T09:36:23.093Z,20.69
2019-05-10T09:38:54.875Z,21.33
2019-05-10T09:41:27.836Z,21.33
2019-05-10T09:44:02.893Z,21.50
2019-05-10T09:46:35.434Z,21.16
2019-05-10T09:49:15.794Z,21.26
2019-05-10T09:51:45.259Z,21.13
2019-05-10T09:54:23.252Z,20.80
2019-05-10T09:56:54.005Z,20.52
2019-05-10T09:59:27.754Z,20.00
2019-05-10T10:01:59.120Z,19.65
2019-05-10T10:04:31.631Z,19.03
2019-05-10T10:07:04.419Z,18.57
2019-05-10T10:09:42.438Z,18.55
2019-05-10T10:12:10.398Z,18.44
2019-05-10T10:14:43.502Z,18.11
2019-05-10T10:17:18.431Z,18.24
2019-05-10T10:19:49.709Z,18.38
2019-05-10T10:22:21.439Z,18.61
2019-05-10T10:24:55.208Z,18.87
2019-05-10T10:27:34.191Z,19.03
2019-05-10T10:30:00.111Z,18.99
2019-05-10T10:32:37.614Z,19.21
2019-05-10T10:35:13.320Z,19.01
2019-05-10T10:37:44.557Z,19.22
2019-05-10T10:40:18.331Z,19.30
2019-05-10T10:42:50.704Z,19.64
2019-05-10T10:45:22.574Z,19.80
2019-05-10T10:47:57.130Z,20.35
2019-05-10T10:50:27.971Z,20.54
2019-05-10T10:52:59.707Z,20.43
2019-05-10T10:55:36.621Z,20.66
2019-05-10T10:58:07.182Z,20.61
2019-05-10T11:00:39.255Z,20.57
2019-05-10T11:03:11.115Z,20.51
2019-05-10T11:05:42.867Z,20.41
2019-05-10T11:08:14.616Z,20.24
2019-05-10T11:10:46.361Z,20.02
2019-05-10T11:13:40.505Z,20.10
2019-05-10T11:16:09.646Z,19.90
2019-05-10T11:18:35.445Z,20.02
2019-05-10T11:21:07.205Z,19.78
2019-05-10T11:23:41.954Z,19.66
2019-05-10T11:26:13.530Z,19.81
2019-05-10T11:28:45.262Z,19.40
2019-05-10T11:31:17.019Z,19.19
2019-05-10T11:33:56.013Z,19.39
2019-05-10T11:36:22.465Z,19.55
2019-05-10T11:38:58.533Z,19.93
2019-05-10T11:41:31.251Z,20.16
2019-05-10T11:44:05.610Z,20.08
2019-05-10T11:46:37.239Z,19.97
2019-05-10T11:49:10.688Z,20.08
2019-05-10T11:51:47.933Z,20.28
2019-05-10T11:54:16.974Z,20.63
2019-05-10T11:56:58.495Z,20.92
2019-05-10T11:59:33.812Z,21.21
2019-05-10T12:02:09.187Z,21.55
2019-05-10T12:04:42.550Z,21.76
2019-05-10T12:07:12.966Z,21.17
2019-05-10T12:09:45.078Z,20.78
2019-05-10T12:12:16.817Z,21.40
2019-05-10T12:14:48.726Z,21.77
2019-05-10T12:17:24.062Z,21.62
2019-05-10T12:19:56.398Z,20.81
2019-05-10T12:22:32.070Z,20.53
2019-05-10T12:25:23.321Z,21.13
2019-05-10T12:27:44.287Z,21.09
2019-05-10T12:30:11.488Z,21.14
2019-05-10T12:32:55.736Z,21.12
2019-05-10T12:35:21.502Z,20.64
2019-05-10T12:37:54.418Z,19.77
2019-05-10T12:40:26.143Z,19.64
2019-05-10T12:42:57.891Z,19.82
2019-05-10T12:45:31.371Z,20.15
2019-05-10T12:48:02.908Z,20.32
2019-05-10T12:50:34.740Z,20.37
2019-05-10T12:53:14.034Z,20.26
2019-05-10T12:55:40.328Z,20.61
2019-05-10T12:58:12.072Z,20.73
2019-05-10T13:00:46.525Z,20.42
2019-05-10T13:03:19.378Z,20.41
2019-05-10T13:05:52.954Z,20.47
2019-05-10T13:08:24.012Z,20.82
2019-05-10T13:10:55.876Z,20.44
2019-05-10T13:13:30.083Z,20.10
2019-05-10T13:16:03.689Z,19.89
2019-05-10T13:18:49.736Z,19.78
2019-05-10T13:23:42.559Z,20.27
2019-05-10T13:26:14.399Z,20.51
2019-05-10T13:28:46.143Z,20.53
2019-05-10T13:31:17.919Z,20.86
2019-05-10T13:33:49.657Z,20.82
2019-05-10T13:36:21.411Z,20.54
2019-05-10T13:38:56.120Z,20.15
2019-05-10T13:41:27.989Z,20.00
2019-05-10T13:44:05.042Z,19.95
2019-05-10T13:46:33.062Z,19.77
2019-05-10T13:49:04.886Z,20.02
2019-05-10T13:51:36.516Z,20.03
2019-05-10T13:54:08.258Z,20.25
2019-05-10T13:56:45.202Z,20.40
2019-05-10T13:59:49.065Z,20.28
2019-05-10T14:02:31.947Z,20.58
2019-05-10T14:04:54.645Z,20.47
2019-05-10T14:07:26.395Z,20.15
2019-05-10T14:09:58.129Z,20.38
2019-05-10T14:12:29.960Z,20.24
2019-05-10T14:15:08.279Z,20.16
2019-05-10T14:17:35.394Z,19.97
2019-05-10T14:20:19.739Z,20.06
2019-05-10T14:22:48.363Z,20.04
2019-05-10T14:25:17.157Z,19.70
2019-05-10T14:27:49.365Z,19.81
2019-05-10T14:30:21.205Z,19.81
2019-05-10T14:32:52.959Z,19.72
2019-05-10T14:35:24.710Z,19.43
2019-05-10T14:38:07.512Z,19.24
2019-05-10T14:40:30.779Z,19.04
2019-05-10T14:43:02.779Z,18.86
2019-05-10T14:45:34.526Z,18.70
2019-05-10T14:48:06.252Z,18.50
2019-05-10T14:50:38.006Z,18.55
2019-05-10T14:53:13.601Z,18.82
2019-05-10T14:55:45.520Z,19.10
2019-05-10T14:58:18.505Z,19.63
2019-05-10T15:00:51.762Z,19.70
2019-05-10T15:03:25.232Z,19.56
2019-05-10T15:06:01.565Z,19.56
2019-05-10T15:08:34.321Z,19.47
2019-05-10T15:11:07.397Z,19.42
2019-05-10T15:13:39.423Z,19.62
2019-05-10T15:16:26.241Z,19.51
2019-05-10T15:18:50.442Z,19.50
2019-05-10T15:21:22.182Z,19.56
2019-05-10T15:24:00.774Z,19.35
2019-05-10T15:26:43.227Z,18.56
2019-05-10T15:29:22.070Z,18.00
2019-05-10T15:31:55.585Z,17.71
2019-05-10T15:34:28.125Z,17.50
2019-05-10T15:37:09.201Z,17.24
2019-05-10T15:39:38.596Z,17.23
2019-05-10T15:42:10.334Z,17.17
2019-05-10T15:44:42.104Z,17.12
2019-05-10T15:47:20.639Z,17.20
2019-05-10T15:49:47.081Z,17.16
2019-05-10T15:52:23.330Z,16.90
2019-05-10T15:54:53.286Z,16.85
2019-05-10T15:57:25.428Z,16.68
2019-05-10T15:59:59.181Z,16.73
2019-05-10T16:02:30.796Z,16.62
2019-05-10T16:05:02.572Z,16.56
2019-05-10T16:07:35.953Z,16.33
2019-05-10T16:10:08.248Z,16.42
2019-05-10T16:12:43.113Z,16.49
2019-05-10T16:15:19.937Z,16.51
2019-05-10T16:17:46.850Z,16.69
2019-05-10T16:20:18.730Z,16.69
2019-05-10T16:22:50.457Z,16.47
2019-05-10T16:25:22.223Z,16.45
2019-05-10T16:27:53.948Z,16.31
2019-05-10T16:30:25.714Z,16.17
2019-05-10T16:32:57.467Z,16.08
2019-05-10T16:35:38.323Z,15.92
2019-05-10T16:38:02.745Z,15.85
2019-05-10T16:40:34.603Z,15.86
2019-05-10T16:43:06.797Z,15.76
2019-05-10T16:45:39.927Z,15.73
2019-05-10T16:48:11.677Z,15.69
2019-05-10T16:50:43.437Z,15.75
2019-05-10T16:53:15.192Z,15.70
2019-05-10T16:55:46.963Z,15.75
2019-05-10T16:58:22.134Z,15.79
2019-05-10T17:00:52.052Z,15.81
2019-05-10T17:03:23.806Z,15.82
2019-05-10T17:05:58.644Z,15.86
2019-05-10T17:08:30.601Z,15.89
2019-05-10T17:11:09.611Z,15.81
2019-05-10T17:13:40.998Z,15.81
2019-05-10T17:16:11.662Z,15.72
2019-05-10T17:18:50.023Z,15.60
2019-05-10T17:21:19.033Z,15.53
2019-05-10T17:23:51.958Z,15.49
2019-05-10T17:26:23.703Z,15.49
2019-05-10T17:28:56.707Z,15.46
2019-05-10T17:31:28.468Z,15.41
2019-05-10T17:34:00.224Z,15.35
2019-05-10T17:36:31.978Z,15.31
2019-05-10T17:39:05.090Z,15.28
2019-05-10T17:41:36.764Z,15.17
2019-05-10T17:44:08.487Z,15.09
2019-05-10T17:46:40.875Z,15.09
2019-05-10T17:49:12.631Z,15.01
2019-05-10T17:51:44.408Z,14.97
2019-05-10T17:54:17.491Z,14.94
2019-05-10T17:56:49.151Z,14.93
2019-05-10T17:59:20.952Z,14.92
2019-05-10T18:01:52.735Z,14.80
2019-05-10T18:04:24.503Z,14.83
2019-05-10T18:06:56.143Z,14.82
2019-05-10T18:09:28.093Z,14.73
2019-05-10T18:11:59.748Z,14.71
2019-05-10T18:14:31.318Z,14.68
2019-05-10T18:17:02.887Z,14.65
2019-05-10T18:19:35.861Z,14.59
2019-05-10T18:22:07.650Z,14.59
2019-05-10T18:24:42.138Z,14.53
2019-05-10T18:27:14.044Z,14.45
2019-05-10T18:29:45.718Z,14.44
2019-05-10T18:32:17.504Z,14.38
2019-05-10T18:34:50.608Z,14.37
2019-05-10T18:37:23.367Z,14.35
2019-05-10T18:39:55.470Z,14.31
2019-05-10T18:42:27.954Z,14.28
2019-05-10T18:44:59.976Z,14.25
2019-05-10T18:47:33.391Z,14.25
2019-05-10T18:50:06.897Z,14.22
2019-05-10T18:52:38.552Z,14.19
2019-05-10T18:55:10.709Z,14.17
2019-05-10T18:57:45.306Z,14.14
2019-05-10T19:00:22.920Z,14.13
2019-05-10T19:02:55.212Z,14.10
2019-05-10T19:05:31.520Z,14.05
2019-05-10T19:08:05.320Z,13.99
2019-05-10T19:10:37.853Z,13.95
2019-05-10T19:13:09.838Z,13.94
2019-05-10T19:15:46.271Z,13.92
2019-05-10T19:18:17.687Z,13.87
2019-05-10T19:20:53.486Z,13.82
2019-05-10T19:23:25.789Z,13.75
2019-05-10T19:25:58.824Z,13.70
2019-05-10T19:28:30.606Z,13.65
2019-05-10T19:31:03.576Z,13.58
2019-05-10T19:33:38.085Z,13.54
2019-05-10T19:36:13.053Z,13.51
2019-05-10T19:38:42.530Z,13.47
2019-05-10T19:41:14.322Z,13.46
2019-05-10T19:43:49.900Z,13.40
2019-05-10T19:46:19.902Z,13.38
2019-05-10T19:48:51.662Z,13.41
2019-05-10T19:51:23.481Z,13.38
2019-05-10T19:53:55.214Z,13.40
2019-05-10T19:56:30.201Z,13.41
2019-05-10T19:59:05.438Z,13.41
2019-05-10T20:01:34.515Z,13.41
2019-05-10T20:04:09.361Z,13.35
2019-05-10T20:06:41.048Z,13.35
2019-05-10T20:09:13.812Z,13.32
2019-05-10T20:11:45.477Z,13.30
2019-05-10T20:14:17.429Z,13.32
2019-05-10T20:16:53.240Z,13.30
2019-05-10T20:19:24.203Z,13.28
2019-05-10T20:21:56.219Z,13.27
2019-05-10T20:24:27.982Z,13.25
2019-05-10T20:27:00.144Z,13.23
2019-05-10T20:29:37.087Z,13.20
2019-05-10T20:32:09.943Z,13.20
2019-05-10T20:34:41.789Z,13.22
2019-05-10T20:37:15.045Z,13.17
2019-05-10T20:39:46.820Z,13.10
2019-05-10T20:42:20.599Z,13.09
2019-05-10T20:45:06.182Z,13.07
2019-05-10T20:47:25.524Z,13.06
2019-05-10T20:49:58.459Z,13.04
2019-05-10T20:52:30.451Z,12.99
2019-05-10T20:55:06.457Z,12.96
2019-05-10T20:57:39.035Z,12.97
2019-05-10T21:00:13.062Z,12.96
2019-05-10T21:02:45.167Z,12.97
2019-05-10T21:05:17.039Z,12.92
2019-05-10T21:07:48.783Z,12.91
2019-05-10T21:10:20.553Z,12.84
2019-05-10T21:12:52.304Z,12.81
2019-05-10T21:15:24.058Z,12.79
2019-05-10T21:17:55.819Z,12.78
2019-05-10T21:20:27.609Z,12.75
2019-05-10T21:22:59.343Z,12.74
2019-05-10T21:25:31.067Z,12.72
2019-05-10T21:28:02.822Z,12.68
2019-05-10T21:30:37.534Z,12.72
2019-05-10T21:33:09.409Z,12.67
2019-05-10T21:35:41.139Z,12.68
2019-05-10T21:38:13.912Z,12.62
2019-05-10T21:40:45.687Z,12.58
2019-05-10T21:43:17.423Z,12.52
2019-05-10T21:45:49.185Z,12.49
2019-05-10T21:48:20.859Z,12.40
2019-05-10T21:50:52.610Z,12.33
2019-05-10T21:53:24.361Z,12.26
2019-05-10T21:55:56.210Z,12.15
2019-05-10T21:58:27.978Z,12.10
2019-05-10T22:00:59.729Z,12.06
2019-05-10T22:03:32.675Z,11.99
2019-05-10T22:06:04.775Z,11.90
2019-05-10T22:08:48.799Z,11.83
2019-05-10T22:11:11.687Z,11.77
2019-05-10T22:13:43.444Z,11.70
2019-05-10T22:16:15.203Z,11.63
2019-05-10T22:18:48.975Z,11.56
2019-05-10T22:21:25.526Z,11.48
2019-05-10T22:23:57.484Z,11.42
2019-05-10T22:26:31.312Z,11.37
2019-05-10T22:29:03.158Z,11.33
2019-05-10T22:31:34.931Z,11.29
2019-05-10T22:34:06.677Z,11.24
2019-05-10T22:36:38.416Z,11.17
2019-05-10T22:39:10.180Z,11.10
2019-05-10T22:41:41.913Z,11.07
2019-05-10T22:44:13.661Z,11.01
2019-05-10T22:46:45.424Z,10.98
2019-05-10T22:49:17.165Z,10.96
2019-05-10T22:51:49.004Z,10.94
2019-05-10T22:54:20.740Z,10.94
2019-05-10T22:56:52.486Z,10.95
2019-05-10T22:59:24.134Z,10.99
2019-05-10T23:01:55.979Z,11.03
2019-05-10T23:04:27.723Z,11.08
2019-05-10T23:06:59.572Z,11.13
2019-05-10T23:09:31.613Z,11.18
2019-05-10T23:12:03.368Z,11.19
2019-05-10T23:14:35.144Z,11.20
2019-05-10T23:17:07.181Z,11.20
2019-05-10T23:19:38.915Z,11.19
2019-05-10T23:22:10.648Z,11.17
2019-05-10T23:24:42.504Z,11.13
2019-05-10T23:27:14.240Z,11.10
2019-05-10T23:29:45.973Z,11.06
2019-05-10T23:32:17.910Z,11.01
2019-05-10T23:34:49.752Z,10.97
2019-05-10T23:37:21.613Z,10.91
2019-05-10T23:39:53.322Z,10.88
2019-05-10T23:42:25.055Z,10.79
2019-05-10T23:44:56.795Z,10.73
2019-05-10T23:47:28.527Z,10.65
2019-05-10T23:50:00.363Z,10.56
2019-05-10T23:52:32.097Z,10.50
2019-05-10T23:55:04.973Z,10.44
2019-05-10T23:57:38.372Z,10.35
